createdAt,value
2018-08-20T00:01:23.186Z,96277.39
2018-08-20T00:03:52.929Z,96281.99
2018-08-20T00:06:25.137Z,96278.78
2018-08-20T00:08:54.546Z,96277.20
2018-08-20T00:11:24.017Z,96271.11
2018-08-20T00:13:56.460Z,96272.79
2018-08-20T00:16:27.544Z,96267.38
2018-08-20T00:18:57.923Z,96268.48
2018-08-20T00:21:27.296Z,96267.67
2018-08-20T00:23:58.252Z,96265.52
2018-08-20T00:26:28.673Z,96268.84
2018-08-20T00:28:58.672Z,96272.64
2018-08-20T00:31:28.093Z,96275.16
2018-08-20T00:33:57.474Z,96273.63
2018-08-20T00:36:26.934Z,96266.90
2018-08-20T00:38:57.770Z,96265.55
2018-08-20T00:41:27.165Z,96263.14
2018-08-20T00:43:56.888Z,96264.81
2018-08-20T00:46:26.311Z,96264.59
2018-08-20T00:50:00.945Z,96264.70
2018-08-20T00:52:30.356Z,96264.77
2018-08-20T00:55:00.679Z,96261.19
2018-08-20T00:57:30.105Z,96264.19
2018-08-20T01:00:00.087Z,96266.92
2018-08-20T01:02:31.376Z,96263.41
2018-08-20T01:05:03.802Z,96270.27
2018-08-20T01:07:34.127Z,96265.22
2018-08-20T01:10:03.804Z,96272.58
2018-08-20T01:12:33.628Z,96267.47
2018-08-20T01:15:03.030Z,96269.62
2018-08-20T01:17:32.432Z,96269.40
2018-08-20T01:20:02.297Z,96266.18
2018-08-20T01:22:31.775Z,96264.28
2018-08-20T01:25:01.573Z,96262.68
2018-08-20T01:27:31.181Z,96258.37
2018-08-20T01:30:00.643Z,96263.06
2018-08-20T01:32:30.122Z,96257.15
2018-08-20T01:35:14.648Z,96255.62
2018-08-20T01:37:45.347Z,96254.83
2018-08-20T01:40:14.821Z,96257.81
2018-08-20T01:42:44.725Z,96255.41
2018-08-20T01:45:14.158Z,96254.59
2018-08-20T01:47:43.578Z,96256.56
2018-08-20T01:50:13.439Z,96254.44
2018-08-20T01:52:42.921Z,96252.31
2018-08-20T01:55:12.324Z,96252.66
2018-08-20T01:57:41.803Z,96254.58
2018-08-20T02:00:11.634Z,96254.58
2018-08-20T02:02:41.064Z,96253.52
2018-08-20T02:05:10.622Z,96259.72
2018-08-20T02:07:40.006Z,96258.92
2018-08-20T02:10:09.963Z,96256.02
2018-08-20T02:12:40.891Z,96254.75
2018-08-20T02:15:10.403Z,96247.20
2018-08-20T02:17:39.784Z,96235.95
2018-08-20T02:20:09.647Z,96238.67
2018-08-20T02:22:39.047Z,96235.20
2018-08-20T02:25:08.868Z,96230.33
2018-08-20T02:27:38.287Z,96233.28
2018-08-20T02:30:08.065Z,96234.09
2018-08-20T02:32:37.851Z,96231.93
2018-08-20T02:35:08.130Z,96232.84
2018-08-20T02:37:42.678Z,96226.96
2018-08-20T02:40:12.352Z,96226.96
2018-08-20T02:42:42.137Z,96229.98
2018-08-20T02:45:17.691Z,96228.63
2018-08-20T02:47:47.510Z,96227.56
2018-08-20T02:50:17.523Z,96232.44
2018-08-20T02:52:46.978Z,96226.27
2018-08-20T02:55:16.469Z,96232.28
2018-08-20T02:57:46.754Z,96223.39
2018-08-20T03:00:16.471Z,96228.00
2018-08-20T03:02:46.013Z,96224.86
2018-08-20T03:05:15.791Z,96219.30
2018-08-20T03:07:45.203Z,96216.62
2018-08-20T03:10:14.712Z,96217.70
2018-08-20T03:12:44.133Z,96221.75
2018-08-20T03:15:13.986Z,96217.70
2018-08-20T03:17:43.448Z,96214.49
2018-08-20T03:20:12.917Z,96215.89
2018-08-20T03:22:42.363Z,96215.91
2018-08-20T03:25:12.339Z,96213.24
2018-08-20T03:27:41.779Z,96218.66
2018-08-20T03:30:11.719Z,96222.70
2018-08-20T03:32:41.990Z,96219.82
2018-08-20T03:35:12.598Z,96223.32
2018-08-20T03:37:42.073Z,96221.45
2018-08-20T03:40:13.103Z,96218.56
2018-08-20T03:42:42.967Z,96211.83
2018-08-20T03:45:12.649Z,96216.72
2018-08-20T03:47:42.458Z,96213.22
2018-08-20T03:50:14.739Z,96218.68
2018-08-20T03:52:44.107Z,96222.16
2018-08-20T03:55:13.505Z,96219.50
2018-08-20T03:57:43.287Z,96221.35
2018-08-20T04:00:13.289Z,96222.18
2018-08-20T04:02:42.761Z,96220.03
2018-08-20T04:05:12.223Z,96228.13
2018-08-20T04:07:41.808Z,96224.09
2018-08-20T04:10:11.590Z,96230.56
2018-08-20T04:12:40.954Z,96234.70
2018-08-20T04:15:10.405Z,96225.83
2018-08-20T04:17:39.867Z,96230.95
2018-08-20T04:20:10.768Z,96230.95
2018-08-20T04:22:41.934Z,96229.05
2018-08-20T04:25:12.395Z,96230.94
2018-08-20T04:27:46.803Z,96226.61
2018-08-20T04:30:16.237Z,96234.39
2018-08-20T04:32:47.361Z,96236.56
2018-08-20T04:35:16.851Z,96235.20
2018-08-20T04:37:50.212Z,96240.26
2018-08-20T04:40:19.626Z,96240.27
2018-08-20T04:42:49.311Z,96234.34
2018-08-20T04:45:18.798Z,96239.19
2018-08-20T04:47:48.262Z,96241.13
2018-08-20T04:50:17.918Z,96248.87
2018-08-20T04:52:48.166Z,96241.76
2018-08-20T04:55:17.600Z,96244.38
2018-08-20T04:57:46.947Z,96241.10
2018-08-20T05:00:16.707Z,96248.03
2018-08-20T05:02:46.154Z,96250.94
2018-08-20T05:05:15.507Z,96250.33
2018-08-20T05:11:21.546Z,96249.11
2018-08-20T05:13:50.953Z,96241.47
2018-08-20T05:16:21.759Z,96242.70
2018-08-20T05:18:51.268Z,96239.97
2018-08-20T05:21:21.495Z,96239.25
2018-08-20T05:23:50.973Z,96245.05
2018-08-20T05:26:21.505Z,96239.83
2018-08-20T05:28:51.750Z,96245.36
2018-08-20T05:31:21.697Z,96243.31
2018-08-20T05:33:51.092Z,96239.08
2018-08-20T05:36:20.450Z,96246.73
2018-08-20T05:38:50.155Z,96246.28
2018-08-20T05:41:20.562Z,96249.88
2018-08-20T05:43:50.188Z,96248.08
2018-08-20T05:46:20.181Z,96251.85
2018-08-20T05:48:49.537Z,96260.25
2018-08-20T05:51:21.825Z,96261.30
2018-08-20T05:53:58.390Z,96266.91
2018-08-20T05:56:28.436Z,96266.85
2018-08-20T05:58:59.568Z,96266.55
2018-08-20T06:01:30.708Z,96271.37
2018-08-20T06:04:02.886Z,96274.78
2018-08-20T06:06:32.341Z,96274.46
2018-08-20T06:09:03.267Z,96275.66
2018-08-20T06:11:32.743Z,96284.47
2018-08-20T06:14:02.565Z,96290.78
2018-08-20T06:16:32.058Z,96292.17
2018-08-20T06:19:01.471Z,96288.33
2018-08-20T06:21:31.007Z,96289.62
2018-08-20T06:24:00.666Z,96290.19
2018-08-20T06:26:30.091Z,96295.41
2018-08-20T06:29:04.698Z,96302.08
2018-08-20T06:31:34.130Z,96300.91
2018-08-20T06:34:03.514Z,96303.80
2018-08-20T06:36:34.656Z,96305.87
2018-08-20T06:39:05.321Z,96307.42
2018-08-20T06:41:34.811Z,96310.31
2018-08-20T06:44:05.504Z,96315.56
2018-08-20T06:46:35.568Z,96317.71
2018-08-20T06:49:06.986Z,96315.22
2018-08-20T06:51:37.422Z,96312.23
2018-08-20T06:54:08.183Z,96319.09
2018-08-20T06:56:37.578Z,96312.53
2018-08-20T06:59:07.291Z,96316.67
2018-08-20T07:01:39.851Z,96316.39
2018-08-20T07:04:09.443Z,96319.40
2018-08-20T07:06:39.816Z,96309.22
2018-08-20T07:09:09.194Z,96318.48
2018-08-20T07:11:38.952Z,96317.67
2018-08-20T07:14:09.559Z,96322.58
2018-08-20T07:16:41.405Z,96325.88
2018-08-20T07:19:10.807Z,96323.41
2018-08-20T07:21:40.642Z,96322.17
2018-08-20T07:24:11.588Z,96328.33
2018-08-20T07:26:41.011Z,96326.95
2018-08-20T07:29:11.059Z,96332.41
2018-08-20T07:31:41.994Z,96334.52
2018-08-20T07:34:11.757Z,96332.10
2018-08-20T07:36:47.044Z,96337.21
2018-08-20T07:39:16.559Z,96333.48
2018-08-20T07:41:47.317Z,96341.83
2018-08-20T07:44:16.735Z,96348.34
2018-08-20T07:46:46.162Z,96341.52
2018-08-20T07:49:20.577Z,96342.06
2018-08-20T07:51:51.685Z,96339.57
2018-08-20T07:54:23.070Z,96338.69
2018-08-20T07:56:53.688Z,96332.81
2018-08-20T07:59:23.508Z,96332.48
2018-08-20T08:01:57.574Z,96344.11
2018-08-20T08:04:28.414Z,96342.23
2018-08-20T08:06:58.769Z,96349.19
2018-08-20T08:09:28.385Z,96347.16
2018-08-20T08:11:58.399Z,96348.67
2018-08-20T08:14:28.363Z,96353.62
2018-08-20T08:18:00.892Z,96352.64
2018-08-20T08:20:30.945Z,96355.64
2018-08-20T08:23:01.672Z,96349.44
2018-08-20T08:25:32.716Z,96345.47
2018-08-20T08:28:02.173Z,96355.56
2018-08-20T08:30:31.581Z,96352.72
2018-08-20T08:33:01.413Z,96354.52
2018-08-20T08:39:27.856Z,96338.31
2018-08-20T08:41:58.157Z,96348.80
2018-08-20T08:44:27.534Z,96346.62
2018-08-20T08:46:56.952Z,96342.30
2018-08-20T08:49:27.292Z,96348.72
2018-08-20T08:51:57.002Z,96347.21
2018-08-20T08:54:26.432Z,96349.84
2018-08-20T08:56:56.471Z,96348.45
2018-08-20T08:59:29.879Z,96340.85
2018-08-20T09:01:59.554Z,96342.94
2018-08-20T09:04:29.599Z,96335.82
2018-08-20T09:07:00.710Z,96347.22
2018-08-20T09:09:30.092Z,96338.22
2018-08-20T09:12:01.284Z,96332.34
2018-08-20T09:14:33.695Z,96333.13
2018-08-20T09:17:03.453Z,96335.59
2018-08-20T09:19:36.390Z,96331.76
2018-08-20T09:22:05.812Z,96333.59
2018-08-20T09:24:36.232Z,96328.36
2018-08-20T09:27:05.909Z,96329.69
2018-08-20T09:29:35.401Z,96327.39
2018-08-20T09:32:11.334Z,96328.99
2018-08-20T09:34:41.421Z,96331.16
2018-08-20T09:37:12.557Z,96324.77
2018-08-20T09:39:42.013Z,96322.73
2018-08-20T09:42:11.592Z,96315.67
2018-08-20T09:44:41.946Z,96320.59
2018-08-20T09:47:11.565Z,96317.86
2018-08-20T09:49:41.071Z,96314.33
2018-08-20T09:52:11.206Z,96311.27
2018-08-20T09:54:40.647Z,96311.83
2018-08-20T09:57:10.129Z,96306.03
2018-08-20T09:59:40.707Z,96301.52
2018-08-20T10:02:10.158Z,96301.75
2018-08-20T10:04:43.181Z,96299.58
2018-08-20T10:07:12.568Z,96300.23
2018-08-20T10:09:47.764Z,96295.66
2018-08-20T10:12:17.171Z,96299.66
2018-08-20T10:14:48.156Z,96299.18
2018-08-20T10:17:18.007Z,96292.20
2018-08-20T10:19:48.650Z,96300.41
2018-08-20T10:22:19.074Z,96295.73
2018-08-20T10:24:48.919Z,96291.86
2018-08-20T10:27:18.328Z,96297.98
2018-08-20T10:29:48.809Z,96292.86
2018-08-20T10:32:19.041Z,96287.52
2018-08-20T10:34:51.416Z,96278.56
2018-08-20T10:37:20.843Z,96272.77
2018-08-20T10:39:50.269Z,96274.20
2018-08-20T10:42:19.688Z,96270.81
2018-08-20T10:44:53.362Z,96277.42
2018-08-20T10:47:24.082Z,96274.67
2018-08-20T10:49:53.818Z,96271.67
2018-08-20T10:52:23.228Z,96273.09
2018-08-20T10:54:52.688Z,96262.70
2018-08-20T10:57:22.949Z,96270.23
2018-08-20T10:59:52.691Z,96263.44
2018-08-20T11:02:25.158Z,96271.59
2018-08-20T11:04:57.374Z,96275.75
2018-08-20T11:07:26.787Z,96267.58
2018-08-20T11:09:58.028Z,96258.37
2018-08-20T11:12:27.447Z,96254.32
2018-08-20T11:15:01.682Z,96262.09
2018-08-20T11:17:32.522Z,96258.66
2018-08-20T11:20:02.351Z,96258.61
2018-08-20T11:22:32.034Z,96260.27
2018-08-20T11:25:01.492Z,96260.45
2018-08-20T11:27:30.955Z,96262.80
2018-08-20T11:30:01.322Z,96252.35
2018-08-20T11:32:31.231Z,96255.73
2018-08-20T11:35:01.714Z,96246.98
2018-08-20T11:37:33.445Z,96244.97
2018-08-20T11:40:12.360Z,96243.64
2018-08-20T11:42:43.092Z,96242.26
2018-08-20T11:45:15.608Z,96246.38
2018-08-20T11:53:49.105Z,96249.52
2018-08-20T11:56:18.560Z,96249.73
2018-08-20T11:58:48.340Z,96246.11
2018-08-20T12:01:17.782Z,96252.84
2018-08-20T12:03:51.706Z,96250.23
2018-08-20T12:06:21.502Z,96241.50
2018-08-20T12:08:51.239Z,96242.48
2018-08-20T12:11:20.883Z,96241.83
2018-08-20T12:13:52.419Z,96237.92
2018-08-20T12:16:23.990Z,96235.05
2018-08-20T12:18:54.929Z,96235.82
2018-08-20T12:21:24.545Z,96234.34
2018-08-20T12:23:56.440Z,96243.19
2018-08-20T12:26:30.957Z,96235.43
2018-08-20T12:29:02.183Z,96245.44
2018-08-20T12:31:31.871Z,96247.75
2018-08-20T12:34:02.166Z,96252.61
2018-08-20T12:36:31.622Z,96248.84
2018-08-20T12:39:02.064Z,96244.81
2018-08-20T12:41:33.470Z,96253.04
2018-08-20T12:44:05.415Z,96244.28
2018-08-20T12:46:35.955Z,96254.98
2018-08-20T12:49:07.372Z,96253.55
2018-08-20T12:51:37.839Z,96257.15
2018-08-20T12:54:07.370Z,96254.46
2018-08-20T12:56:39.280Z,96247.20
2018-08-20T12:59:10.056Z,96256.22
2018-08-20T13:01:39.965Z,96254.42
2018-08-20T13:04:10.392Z,96260.75
2018-08-20T13:06:39.841Z,96263.93
2018-08-20T13:09:11.159Z,96257.53
2018-08-20T13:11:41.326Z,96257.28
2018-08-20T13:14:15.134Z,96253.04
2018-08-20T13:16:48.925Z,96251.23
2018-08-20T13:19:18.326Z,96248.47
2018-08-20T13:21:47.798Z,96253.09
2018-08-20T13:24:17.311Z,96256.63
2018-08-20T13:26:48.628Z,96258.37
2018-08-20T13:29:18.074Z,96259.70
2018-08-20T13:31:47.477Z,96263.25
2018-08-20T13:34:17.316Z,96260.41
2018-08-20T13:36:47.829Z,96258.73
2018-08-20T13:39:18.004Z,96258.16
2018-08-20T13:41:48.769Z,96256.73
2018-08-20T13:44:18.568Z,96266.00
2018-08-20T13:46:47.914Z,96261.34
2018-08-20T13:49:17.397Z,96263.03
2018-08-20T13:51:48.540Z,96262.03
2018-08-20T13:54:18.602Z,96261.94
2018-08-20T13:56:53.629Z,96263.11
2018-08-20T13:59:24.642Z,96263.91
2018-08-20T14:01:54.166Z,96257.77
2018-08-20T14:04:24.042Z,96260.67
2018-08-20T14:06:54.406Z,96260.13
2018-08-20T14:09:24.532Z,96260.04
2018-08-20T14:11:54.561Z,96262.09
2018-08-20T14:14:24.498Z,96257.17
2018-08-20T14:16:53.909Z,96261.08
2018-08-20T14:19:23.624Z,96258.12
2018-08-20T14:21:53.061Z,96253.41
2018-08-20T14:24:22.612Z,96256.81
2018-08-20T14:26:54.950Z,96259.86
2018-08-20T14:29:24.350Z,96259.77
2018-08-20T14:31:56.212Z,96264.17
2018-08-20T14:34:29.605Z,96265.98
2018-08-20T14:36:59.084Z,96263.59
2018-08-20T14:39:29.051Z,96265.63
2018-08-20T14:41:59.183Z,96259.70
2018-08-20T14:44:28.620Z,96257.31
2018-08-20T14:46:59.403Z,96259.44
2018-08-20T14:49:30.096Z,96254.91
2018-08-20T14:51:59.499Z,96259.66
2018-08-20T14:54:29.238Z,96254.08
2018-08-20T14:57:01.122Z,96258.64
2018-08-20T14:59:33.237Z,96260.85
2018-08-20T15:02:03.590Z,96253.60
2018-08-20T15:04:34.013Z,96248.25
2018-08-20T15:07:12.379Z,96244.49
2018-08-20T15:09:43.352Z,96253.36
2018-08-20T15:12:15.451Z,96246.77
2018-08-20T15:14:44.872Z,96245.84
2018-08-20T15:17:15.338Z,96252.69
2018-08-20T15:19:51.804Z,96252.09
2018-08-20T15:22:22.227Z,96253.73
2018-08-20T15:24:51.672Z,96253.05
2018-08-20T15:27:24.185Z,96249.98
2018-08-20T15:30:01.558Z,96248.33
2018-08-20T15:32:31.621Z,96256.94
2018-08-20T15:35:13.775Z,96246.77
2018-08-20T15:37:43.991Z,96243.79
2018-08-20T15:40:15.029Z,96254.14
2018-08-20T15:42:48.032Z,96254.66
2018-08-20T15:45:22.415Z,96263.55
2018-08-20T15:47:55.725Z,96259.67
2018-08-20T15:50:25.517Z,96256.18
2018-08-20T15:52:58.553Z,96261.13
2018-08-20T15:55:32.244Z,96261.42
2018-08-20T16:03:16.155Z,96261.52
2018-08-20T16:05:49.439Z,96265.03
2018-08-20T16:08:39.663Z,96267.27
2018-08-20T16:11:29.476Z,96264.92
2018-08-20T16:14:07.268Z,96264.70
2018-08-20T16:17:44.391Z,96264.59
2018-08-20T16:20:16.523Z,96267.27
2018-08-20T16:22:52.167Z,96261.73
2018-08-20T16:25:27.630Z,96265.27
2018-08-20T16:27:58.659Z,96269.20
2018-08-20T16:30:28.071Z,96265.99
2018-08-20T16:32:58.023Z,96273.84
2018-08-20T16:35:29.169Z,96278.25
2018-08-20T16:38:00.324Z,96280.45
2018-08-20T16:40:31.085Z,96276.58
2018-08-20T16:45:46.443Z,96273.78
2018-08-20T16:48:18.242Z,96270.03
2018-08-20T16:50:50.737Z,96275.88
2018-08-20T16:53:37.062Z,96271.30
2018-08-20T16:56:16.135Z,96277.91
2018-08-20T16:59:18.313Z,96270.98
2018-08-20T17:01:54.531Z,96269.95
2018-08-20T17:04:34.575Z,96274.52
2018-08-20T17:07:05.216Z,96274.52
2018-08-20T17:09:34.601Z,96273.73
2018-08-20T17:12:05.932Z,96283.37
2018-08-20T17:14:38.310Z,96284.41
2018-08-20T17:17:13.435Z,96282.22
2018-08-20T17:19:45.731Z,96286.55
2018-08-20T17:22:16.425Z,96278.33
2018-08-20T17:24:46.729Z,96287.66
2018-08-20T17:27:21.253Z,96293.31
2018-08-20T17:29:51.457Z,96290.38
2018-08-20T17:32:23.277Z,96282.30
2018-08-20T17:34:54.964Z,96284.13
2018-08-20T17:37:25.226Z,96280.03
2018-08-20T17:40:06.449Z,96283.05
2018-08-20T17:42:38.967Z,96284.78
2018-08-20T17:45:10.055Z,96291.01
2018-08-20T17:47:41.223Z,96296.13
2018-08-20T17:50:25.223Z,96294.48
2018-08-20T17:52:55.236Z,96308.50
2018-08-20T17:55:26.301Z,96299.44
2018-08-20T17:57:55.720Z,96310.02
2018-08-20T18:00:34.545Z,96312.59
2018-08-20T18:03:05.783Z,96307.36
2018-08-20T18:05:36.975Z,96303.83
2018-08-20T18:08:10.915Z,96303.69
2018-08-20T18:10:44.973Z,96301.05
2018-08-20T18:13:25.869Z,96315.15
2018-08-20T18:15:55.283Z,96312.37
2018-08-20T18:21:25.807Z,96315.88
2018-08-20T18:23:56.273Z,96314.11
2018-08-20T18:26:31.064Z,96319.89
2018-08-20T18:29:01.056Z,96313.84
2018-08-20T18:31:31.025Z,96323.48
2018-08-20T18:34:00.916Z,96325.25
2018-08-20T18:36:32.243Z,96330.91
2018-08-20T18:39:06.969Z,96333.17
2018-08-20T18:42:14.111Z,96335.42
2018-08-20T18:44:46.154Z,96338.41
2018-08-20T18:47:18.774Z,96336.69
2018-08-20T18:49:54.399Z,96337.17
2018-08-20T18:52:26.861Z,96339.10
2018-08-20T18:54:57.855Z,96338.18
2018-08-20T18:57:33.814Z,96340.58
2018-08-20T19:00:08.361Z,96345.08
2018-08-20T19:02:49.876Z,96347.88
2018-08-20T19:05:21.738Z,96341.75
2018-08-20T19:07:52.834Z,96353.62
2018-08-20T19:10:33.286Z,96351.53
2018-08-20T19:13:05.849Z,96353.73
2018-08-20T19:15:42.295Z,96345.59
2018-08-20T19:18:17.265Z,96352.28
2018-08-20T19:20:47.272Z,96348.91
2018-08-20T19:23:17.479Z,96345.58
2018-08-20T19:25:51.633Z,96346.86
2018-08-20T19:28:25.207Z,96349.05
2018-08-20T19:30:57.639Z,96348.41
2018-08-20T19:33:30.875Z,96350.03
2018-08-20T19:36:00.571Z,96351.86
2018-08-20T19:38:30.914Z,96359.33
2018-08-20T19:41:06.450Z,96354.36
2018-08-20T19:43:40.850Z,96354.22
2018-08-20T19:46:10.786Z,96358.13
2018-08-20T19:48:42.451Z,96353.98
2018-08-20T19:51:12.726Z,96355.17
2018-08-20T19:53:44.279Z,96360.20
2018-08-20T19:56:16.482Z,96359.02
2018-08-20T19:58:49.131Z,96354.21
2018-08-20T20:01:19.312Z,96357.83
2018-08-20T20:03:50.767Z,96362.30
2018-08-20T20:06:20.174Z,96358.36
2018-08-20T20:08:49.594Z,96359.82
2018-08-20T20:11:24.794Z,96359.65
2018-08-20T20:14:02.322Z,96361.42
2018-08-20T20:16:40.768Z,96362.09
2018-08-20T20:19:11.531Z,96363.27
2018-08-20T20:21:41.020Z,96364.17
2018-08-20T20:24:11.798Z,96368.31
2018-08-20T20:26:42.169Z,96366.41
2018-08-20T20:29:12.391Z,96363.44
2018-08-20T20:31:43.682Z,96359.98
2018-08-20T20:34:15.940Z,96367.68
2018-08-20T20:36:45.318Z,96367.19
2018-08-20T20:39:15.755Z,96372.87
2018-08-20T20:41:46.983Z,96371.27
2018-08-20T20:44:19.331Z,96378.93
2018-08-20T20:46:51.996Z,96381.09
2018-08-20T20:49:21.412Z,96380.36
2018-08-20T20:51:51.611Z,96381.78
2018-08-20T20:54:24.716Z,96377.55
2018-08-20T20:56:54.192Z,96378.98
2018-08-20T20:59:23.585Z,96389.11
2018-08-20T21:01:53.889Z,96381.67
2018-08-20T21:04:24.230Z,96388.38
2018-08-20T21:06:53.697Z,96389.31
2018-08-20T21:09:23.965Z,96387.21
2018-08-20T21:11:53.409Z,96388.11
2018-08-20T21:14:25.522Z,96396.01
2018-08-20T21:16:54.935Z,96392.06
2018-08-20T21:19:25.510Z,96391.66
2018-08-20T21:21:54.950Z,96392.34
2018-08-20T21:24:27.366Z,96393.66
2018-08-20T21:26:57.467Z,96389.77
2018-08-20T21:29:32.580Z,96389.66
2018-08-20T21:32:02.977Z,96394.41
2018-08-20T21:34:37.309Z,96390.53
2018-08-20T21:37:07.330Z,96394.61
2018-08-20T21:39:38.146Z,96393.52
2018-08-20T21:42:07.617Z,96391.55
2018-08-20T21:44:38.368Z,96394.61
2018-08-20T21:47:30.187Z,96399.43
2018-08-20T21:50:00.545Z,96401.97
2018-08-20T21:52:30.692Z,96399.75
2018-08-20T21:55:00.059Z,96400.28
2018-08-20T21:57:30.835Z,96401.45
2018-08-20T22:00:21.469Z,96405.05
2018-08-20T22:02:55.774Z,96406.00
2018-08-20T22:05:25.607Z,96406.48
2018-08-20T22:07:56.916Z,96416.08
2018-08-20T22:10:30.143Z,96415.62
2018-08-20T22:13:01.012Z,96419.77
2018-08-20T22:15:32.393Z,96416.80
2018-08-20T22:18:03.758Z,96414.90
2018-08-20T22:20:33.494Z,96413.89
2018-08-20T22:23:11.992Z,96411.48
2018-08-20T22:25:32.721Z,96414.01
2018-08-20T22:28:02.672Z,96413.25
2018-08-20T22:30:37.864Z,96419.34
2018-08-20T22:33:07.367Z,96423.99
2018-08-20T22:35:38.134Z,96421.58
2018-08-20T22:38:07.519Z,96423.48
2018-08-20T22:40:36.916Z,96427.05
2018-08-20T22:43:08.203Z,96426.36
2018-08-20T22:45:38.146Z,96430.16
2018-08-20T22:48:07.539Z,96430.41
2018-08-20T22:50:38.825Z,96429.87
2018-08-20T22:53:10.220Z,96432.58
2018-08-20T22:55:45.271Z,96436.64
2018-08-20T22:58:14.666Z,96439.34
2018-08-20T23:00:44.455Z,96441.46
2018-08-20T23:03:13.845Z,96447.43
2018-08-20T23:05:49.207Z,96444.17
2018-08-20T23:08:19.030Z,96444.47
2018-08-20T23:10:48.978Z,96446.38
2018-08-20T23:13:18.565Z,96440.41
2018-08-20T23:15:47.978Z,96445.27
2018-08-20T23:18:17.414Z,96445.27
2018-08-20T23:20:48.374Z,96455.00
2018-08-20T23:23:22.526Z,96448.02
2018-08-20T23:25:56.073Z,96452.97
2018-08-20T23:28:26.323Z,96461.64
2018-08-20T23:31:00.100Z,96459.01
2018-08-20T23:33:30.060Z,96458.50
2018-08-20T23:36:00.531Z,96469.63
2018-08-20T23:38:30.676Z,96461.50
2018-08-20T23:41:00.362Z,96460.41
2018-08-20T23:43:30.958Z,96460.70
2018-08-20T23:46:00.407Z,96460.66
2018-08-20T23:48:30.715Z,96466.88
2018-08-20T23:51:07.295Z,96467.39
2018-08-20T23:53:36.726Z,96468.19
2018-08-20T23:56:06.141Z,96468.48
2018-08-20T23:58:35.623Z,96461.09
